sensor_id;sensor_type;location;lat;lon;timestamp;pressure;altitude;pressure_sealevel;temperature;humidity
76460;BME280;65299;46.084;18.762;2023-02-01T00:02:30;100935.94;;;4.01;63.04
76460;BME280;65299;46.084;18.762;2023-02-01T00:05:30;100920.00;;;3.96;62.53
76460;BME280;65299;46.084;18.762;2023-02-01T00:08:32;100905.84;;;4.17;61.01
76460;BME280;65299;46.084;18.762;2023-02-01T00:11:32;100913.06;;;4.28;62.10
76460;BME280;65299;46.084;18.762;2023-02-01T00:14:33;100906.81;;;4.29;62.92
76460;BME280;65299;46.084;18.762;2023-02-01T00:17:38;100910.59;;;4.46;62.45
76460;BME280;65299;46.084;18.762;2023-02-01T00:20:38;100904.94;;;4.49;61.58
76460;BME280;65299;46.084;18.762;2023-02-01T00:23:39;100899.66;;;4.49;63.05
76460;BME280;65299;46.084;18.762;2023-02-01T00:26:44;100902.66;;;4.59;62.62
76460;BME280;65299;46.084;18.762;2023-02-01T00:29:44;100887.97;;;4.45;62.96
76460;BME280;65299;46.084;18.762;2023-02-01T00:32:45;100896.22;;;4.55;63.00
76460;BME280;65299;46.084;18.762;2023-02-01T00:35:45;100892.50;;;4.18;62.54
76460;BME280;65299;46.084;18.762;2023-02-01T00:38:46;100893.63;;;4.42;61.91
76460;BME280;65299;46.084;18.762;2023-02-01T00:41:46;100891.09;;;4.67;60.83
76460;BME280;65299;46.084;18.762;2023-02-01T00:44:47;100887.28;;;4.56;59.57
76460;BME280;65299;46.084;18.762;2023-02-01T00:47:47;100884.16;;;4.79;58.36
76460;BME280;65299;46.084;18.762;2023-02-01T00:50:47;100881.78;;;4.71;57.78
76460;BME280;65299;46.084;18.762;2023-02-01T00:53:48;100877.84;;;4.49;58.75
76460;BME280;65299;46.084;18.762;2023-02-01T00:56:49;100892.84;;;4.35;58.41
76460;BME280;65299;46.084;18.762;2023-02-01T00:59:49;100887.38;;;4.37;58.98
76460;BME280;65299;46.084;18.762;2023-02-01T01:02:50;100879.28;;;4.38;58.96
76460;BME280;65299;46.084;18.762;2023-02-01T01:05:56;100874.38;;;4.48;59.16
76460;BME280;65299;46.084;18.762;2023-02-01T01:09:00;100868.59;;;4.33;60.05
76460;BME280;65299;46.084;18.762;2023-02-01T01:12:00;100881.53;;;4.28;59.94
76460;BME280;65299;46.084;18.762;2023-02-01T01:15:03;100869.59;;;4.32;59.16
76460;BME280;65299;46.084;18.762;2023-02-01T01:18:03;100862.50;;;4.46;58.82
76460;BME280;65299;46.084;18.762;2023-02-01T01:21:05;100877.47;;;4.39;59.61
76460;BME280;65299;46.084;18.762;2023-02-01T01:24:06;100880.69;;;4.47;59.25
76460;BME280;65299;46.084;18.762;2023-02-01T01:27:06;100888.56;;;4.41;59.29
76460;BME280;65299;46.084;18.762;2023-02-01T01:30:07;100875.78;;;4.57;58.50
76460;BME280;65299;46.084;18.762;2023-02-01T01:33:08;100884.00;;;4.74;58.83
76460;BME280;65299;46.084;18.762;2023-02-01T01:36:09;100885.59;;;4.75;57.93
76460;BME280;65299;46.084;18.762;2023-02-01T01:39:11;100863.53;;;4.82;58.31
76460;BME280;65299;46.084;18.762;2023-02-01T01:42:11;100860.97;;;4.69;58.94
76460;BME280;65299;46.084;18.762;2023-02-01T01:45:27;100865.75;;;4.79;59.18
76460;BME280;65299;46.084;18.762;2023-02-01T01:48:29;100871.34;;;4.89;57.64
76460;BME280;65299;46.084;18.762;2023-02-01T01:51:32;100872.38;;;4.88;57.79
76460;BME280;65299;46.084;18.762;2023-02-01T01:54:43;100868.38;;;4.79;59.35
76460;BME280;65299;46.084;18.762;2023-02-01T01:57:51;100862.56;;;4.70;58.84
76460;BME280;65299;46.084;18.762;2023-02-01T02:00:54;100863.78;;;4.74;58.99
76460;BME280;65299;46.084;18.762;2023-02-01T02:03:55;100869.44;;;4.71;59.42
76460;BME280;65299;46.084;18.762;2023-02-01T02:07:06;100879.72;;;4.79;57.79
76460;BME280;65299;46.084;18.762;2023-02-01T02:10:10;100858.72;;;4.73;58.50
76460;BME280;65299;46.084;18.762;2023-02-01T02:13:12;100858.13;;;4.64;59.07
76460;BME280;65299;46.084;18.762;2023-02-01T02:39:16;100826.72;;;4.45;59.64
76460;BME280;65299;46.084;18.762;2023-02-01T02:46:22;100813.44;;;4.33;59.22
76460;BME280;65299;46.084;18.762;2023-02-01T02:49:54;100808.09;;;4.46;59.22
76460;BME280;65299;46.084;18.762;2023-02-01T02:53:22;100811.31;;;4.48;58.93
76460;BME280;65299;46.084;18.762;2023-02-01T02:56:42;100795.78;;;4.47;58.99
76460;BME280;65299;46.084;18.762;2023-02-01T03:00:04;100796.38;;;4.49;57.79
76460;BME280;65299;46.084;18.762;2023-02-01T03:03:23;100804.53;;;4.72;57.78
76460;BME280;65299;46.084;18.762;2023-02-01T03:06:43;100793.13;;;4.84;57.74
76460;BME280;65299;46.084;18.762;2023-02-01T03:09:45;100801.38;;;4.88;57.18
76460;BME280;65299;46.084;18.762;2023-02-01T03:12:48;100801.88;;;4.78;57.13
76460;BME280;65299;46.084;18.762;2023-02-01T03:16:01;100808.59;;;4.68;57.77
76460;BME280;65299;46.084;18.762;2023-02-01T03:19:09;100809.03;;;4.58;57.71
76460;BME280;65299;46.084;18.762;2023-02-01T03:22:14;100788.34;;;4.68;57.15
76460;BME280;65299;46.084;18.762;2023-02-01T03:25:23;100800.91;;;4.66;57.19
76460;BME280;65299;46.084;18.762;2023-02-01T03:28:27;100788.81;;;4.59;57.26
76460;BME280;65299;46.084;18.762;2023-02-01T03:31:31;100788.19;;;4.63;57.46
76460;BME280;65299;46.084;18.762;2023-02-01T03:34:32;100803.50;;;4.73;57.37
76460;BME280;65299;46.084;18.762;2023-02-01T03:37:32;100804.31;;;4.73;57.38
76460;BME280;65299;46.084;18.762;2023-02-01T03:40:35;100792.88;;;4.61;57.58
76460;BME280;65299;46.084;18.762;2023-02-01T03:43:49;100801.81;;;4.54;57.06
76460;BME280;65299;46.084;18.762;2023-02-01T03:46:58;100799.72;;;4.62;56.59
76460;BME280;65299;46.084;18.762;2023-02-01T03:50:11;100802.09;;;4.70;56.41
76460;BME280;65299;46.084;18.762;2023-02-01T03:53:18;100807.59;;;4.62;56.28
76460;BME280;65299;46.084;18.762;2023-02-01T03:56:21;100801.22;;;4.52;56.75
76460;BME280;65299;46.084;18.762;2023-02-01T03:59:23;100805.44;;;4.53;56.61
76460;BME280;65299;46.084;18.762;2023-02-01T04:02:24;100815.72;;;4.54;56.39
76460;BME280;65299;46.084;18.762;2023-02-01T04:05:24;100829.03;;;4.66;55.99
76460;BME280;65299;46.084;18.762;2023-02-01T04:08:25;100822.84;;;4.54;56.25
76460;BME280;65299;46.084;18.762;2023-02-01T04:11:25;100811.72;;;4.52;56.29
76460;BME280;65299;46.084;18.762;2023-02-01T04:14:27;100821.81;;;4.55;56.49
76460;BME280;65299;46.084;18.762;2023-02-01T04:17:27;100827.06;;;4.55;56.41
76460;BME280;65299;46.084;18.762;2023-02-01T04:20:28;100824.66;;;4.53;56.26
76460;BME280;65299;46.084;18.762;2023-02-01T04:23:29;100833.28;;;4.60;56.53
76460;BME280;65299;46.084;18.762;2023-02-01T04:26:29;100842.97;;;4.66;56.25
76460;BME280;65299;46.084;18.762;2023-02-01T04:29:30;100848.81;;;4.68;56.12
76460;BME280;65299;46.084;18.762;2023-02-01T04:32:30;100844.00;;;4.65;56.47
76460;BME280;65299;46.084;18.762;2023-02-01T04:35:31;100858.97;;;4.58;56.47
76460;BME280;65299;46.084;18.762;2023-02-01T04:38:31;100855.72;;;4.63;56.53
76460;BME280;65299;46.084;18.762;2023-02-01T04:41:32;100850.19;;;4.77;56.03
76460;BME280;65299;46.084;18.762;2023-02-01T04:44:32;100850.47;;;4.63;56.41
76460;BME280;65299;46.084;18.762;2023-02-01T04:47:33;100848.88;;;4.62;56.30
76460;BME280;65299;46.084;18.762;2023-02-01T04:50:33;100858.13;;;4.64;56.16
76460;BME280;65299;46.084;18.762;2023-02-01T04:53:34;100863.47;;;4.51;57.26
76460;BME280;65299;46.084;18.762;2023-02-01T04:56:34;100865.06;;;4.52;56.64
76460;BME280;65299;46.084;18.762;2023-02-01T04:59:37;100863.25;;;4.53;56.79
76460;BME280;65299;46.084;18.762;2023-02-01T05:02:37;100862.28;;;4.47;57.01
76460;BME280;65299;46.084;18.762;2023-02-01T05:05:38;100860.25;;;4.49;57.14
76460;BME280;65299;46.084;18.762;2023-02-01T05:08:38;100864.06;;;4.53;57.02
76460;BME280;65299;46.084;18.762;2023-02-01T05:11:39;100861.41;;;4.60;57.60
76460;BME280;65299;46.084;18.762;2023-02-01T05:14:58;100857.78;;;4.54;57.07
76460;BME280;65299;46.084;18.762;2023-02-01T05:17:58;100858.56;;;4.61;57.33
76460;BME280;65299;46.084;18.762;2023-02-01T05:20:59;100850.25;;;4.64;57.43
76460;BME280;65299;46.084;18.762;2023-02-01T05:23:59;100850.25;;;4.64;56.56
76460;BME280;65299;46.084;18.762;2023-02-01T05:27:19;100854.03;;;4.75;56.49
76460;BME280;65299;46.084;18.762;2023-02-01T05:30:20;100852.78;;;4.84;56.65
76460;BME280;65299;46.084;18.762;2023-02-01T05:33:20;100857.25;;;4.83;56.40
76460;BME280;65299;46.084;18.762;2023-02-01T05:36:21;100865.25;;;4.95;56.21
76460;BME280;65299;46.084;18.762;2023-02-01T05:39:21;100867.28;;;4.93;55.72
76460;BME280;65299;46.084;18.762;2023-02-01T05:42:21;100878.41;;;4.95;55.45
76460;BME280;65299;46.084;18.762;2023-02-01T05:45:22;100869.28;;;4.97;55.17
76460;BME280;65299;46.084;18.762;2023-02-01T05:48:22;100868.41;;;5.10;55.41
76460;BME280;65299;46.084;18.762;2023-02-01T05:51:23;100881.34;;;5.12;55.29
76460;BME280;65299;46.084;18.762;2023-02-01T05:54:23;100886.84;;;5.03;55.23
76460;BME280;65299;46.084;18.762;2023-02-01T05:57:24;100884.25;;;4.97;55.19
76460;BME280;65299;46.084;18.762;2023-02-01T06:00:24;100886.94;;;4.90;55.50
76460;BME280;65299;46.084;18.762;2023-02-01T06:03:24;100898.69;;;4.88;55.93
76460;BME280;65299;46.084;18.762;2023-02-01T06:06:25;100907.16;;;4.96;55.88
76460;BME280;65299;46.084;18.762;2023-02-01T06:09:25;100911.63;;;4.89;55.71
76460;BME280;65299;46.084;18.762;2023-02-01T06:12:26;100924.78;;;4.83;56.07
76460;BME280;65299;46.084;18.762;2023-02-01T06:15:28;100933.13;;;4.80;56.45
76460;BME280;65299;46.084;18.762;2023-02-01T06:18:29;100938.19;;;4.75;56.49
76460;BME280;65299;46.084;18.762;2023-02-01T06:21:30;100925.22;;;4.80;56.05
76460;BME280;65299;46.084;18.762;2023-02-01T06:24:31;100933.94;;;4.80;55.88
76460;BME280;65299;46.084;18.762;2023-02-01T06:27:32;100923.47;;;4.67;56.16
76460;BME280;65299;46.084;18.762;2023-02-01T06:30:32;100923.66;;;4.72;56.25
76460;BME280;65299;46.084;18.762;2023-02-01T06:33:34;100920.19;;;4.78;56.48
76460;BME280;65299;46.084;18.762;2023-02-01T06:36:34;100907.03;;;4.78;55.68
76460;BME280;65299;46.084;18.762;2023-02-01T06:39:35;100908.28;;;4.69;56.43
76460;BME280;65299;46.084;18.762;2023-02-01T06:42:36;100916.31;;;4.81;56.65
76460;BME280;65299;46.084;18.762;2023-02-01T06:45:36;100920.38;;;4.70;56.68
76460;BME280;65299;46.084;18.762;2023-02-01T06:48:37;100917.13;;;4.75;56.54
76460;BME280;65299;46.084;18.762;2023-02-01T06:51:37;100923.22;;;4.75;56.91
76460;BME280;65299;46.084;18.762;2023-02-01T06:54:38;100922.00;;;4.78;57.19
76460;BME280;65299;46.084;18.762;2023-02-01T06:57:38;100921.97;;;4.84;56.90
76460;BME280;65299;46.084;18.762;2023-02-01T07:00:39;100918.31;;;4.85;56.71
76460;BME280;65299;46.084;18.762;2023-02-01T07:03:39;100917.25;;;4.93;56.74
76460;BME280;65299;46.084;18.762;2023-02-01T07:06:40;100911.47;;;4.84;56.78
76460;BME280;65299;46.084;18.762;2023-02-01T07:09:40;100919.88;;;4.93;56.60
76460;BME280;65299;46.084;18.762;2023-02-01T07:12:41;100921.03;;;5.03;57.11
76460;BME280;65299;46.084;18.762;2023-02-01T07:15:41;100909.28;;;5.13;57.19
76460;BME280;65299;46.084;18.762;2023-02-01T07:18:42;100923.03;;;5.15;56.10
76460;BME280;65299;46.084;18.762;2023-02-01T07:21:42;100921.72;;;5.24;55.47
76460;BME280;65299;46.084;18.762;2023-02-01T07:24:43;100928.19;;;5.28;54.73
76460;BME280;65299;46.084;18.762;2023-02-01T07:27:43;100938.53;;;5.29;53.89
76460;BME280;65299;46.084;18.762;2023-02-01T07:30:44;100938.25;;;5.37;53.91
76460;BME280;65299;46.084;18.762;2023-02-01T07:33:50;100940.50;;;5.34;54.25
76460;BME280;65299;46.084;18.762;2023-02-01T07:36:55;100946.47;;;5.16;54.75
76460;BME280;65299;46.084;18.762;2023-02-01T07:39:55;100944.47;;;5.12;55.34
76460;BME280;65299;46.084;18.762;2023-02-01T07:42:55;100943.88;;;5.10;56.10
76460;BME280;65299;46.084;18.762;2023-02-01T07:45:56;100946.75;;;5.01;55.92
76460;BME280;65299;46.084;18.762;2023-02-01T07:48:57;100945.66;;;5.16;56.20
76460;BME280;65299;46.084;18.762;2023-02-01T07:51:57;100949.31;;;5.15;55.77
76460;BME280;65299;46.084;18.762;2023-02-01T07:54:58;100946.66;;;5.21;55.01
76460;BME280;65299;46.084;18.762;2023-02-01T07:57:58;100950.81;;;5.35;54.79
76460;BME280;65299;46.084;18.762;2023-02-01T08:00:59;100949.56;;;5.38;54.21
76460;BME280;65299;46.084;18.762;2023-02-01T08:04:18;100951.09;;;5.52;53.62
76460;BME280;65299;46.084;18.762;2023-02-01T08:07:18;100956.34;;;5.52;53.74
76460;BME280;65299;46.084;18.762;2023-02-01T08:10:19;100947.84;;;5.81;52.84
76460;BME280;65299;46.084;18.762;2023-02-01T08:13:19;100947.28;;;5.72;52.37
76460;BME280;65299;46.084;18.762;2023-02-01T08:16:21;100950.00;;;5.91;52.76
76460;BME280;65299;46.084;18.762;2023-02-01T08:19:21;100937.81;;;5.96;51.71
76460;BME280;65299;46.084;18.762;2023-02-01T08:22:22;100940.00;;;5.99;51.19
76460;BME280;65299;46.084;18.762;2023-02-01T08:25:23;100940.59;;;6.01;51.70
76460;BME280;65299;46.084;18.762;2023-02-01T08:28:24;100941.50;;;6.13;51.12
76460;BME280;65299;46.084;18.762;2023-02-01T08:31:25;100938.38;;;6.23;51.25
76460;BME280;65299;46.084;18.762;2023-02-01T08:34:26;100935.75;;;6.41;50.11
76460;BME280;65299;46.084;18.762;2023-02-01T08:37:26;100934.94;;;6.58;50.05
76460;BME280;65299;46.084;18.762;2023-02-01T08:40:27;100937.56;;;6.77;49.74
76460;BME280;65299;46.084;18.762;2023-02-01T08:43:28;100928.06;;;6.76;49.93
76460;BME280;65299;46.084;18.762;2023-02-01T08:46:28;100932.06;;;6.96;49.92
76460;BME280;65299;46.084;18.762;2023-02-01T08:49:29;100933.53;;;6.92;50.04
76460;BME280;65299;46.084;18.762;2023-02-01T08:52:29;100928.59;;;6.96;49.94
76460;BME280;65299;46.084;18.762;2023-02-01T08:55:30;100935.28;;;6.98;50.56
76460;BME280;65299;46.084;18.762;2023-02-01T08:58:30;100936.38;;;6.91;50.74
76460;BME280;65299;46.084;18.762;2023-02-01T09:01:30;100936.00;;;6.87;50.76
76460;BME280;65299;46.084;18.762;2023-02-01T09:04:31;100940.66;;;6.74;50.86
76460;BME280;65299;46.084;18.762;2023-02-01T09:07:32;100940.84;;;6.72;50.73
76460;BME280;65299;46.084;18.762;2023-02-01T09:10:34;100946.06;;;6.60;50.10
76460;BME280;65299;46.084;18.762;2023-02-01T09:13:34;100944.16;;;6.86;50.45
76460;BME280;65299;46.084;18.762;2023-02-01T09:16:35;100936.47;;;7.14;49.12
76460;BME280;65299;46.084;18.762;2023-02-01T09:19:36;100937.88;;;7.28;49.31
76460;BME280;65299;46.084;18.762;2023-02-01T09:22:36;100940.88;;;7.31;50.09
76460;BME280;65299;46.084;18.762;2023-02-01T09:25:37;100944.25;;;7.38;51.28
76460;BME280;65299;46.084;18.762;2023-02-01T09:28:38;100943.69;;;7.48;50.01
76460;BME280;65299;46.084;18.762;2023-02-01T09:31:39;100943.19;;;7.39;50.32
76460;BME280;65299;46.084;18.762;2023-02-01T09:34:40;100940.69;;;7.33;50.48
76460;BME280;65299;46.084;18.762;2023-02-01T09:37:43;100942.75;;;7.42;50.82
76460;BME280;65299;46.084;18.762;2023-02-01T09:40:46;100939.69;;;7.57;49.35
76460;BME280;65299;46.084;18.762;2023-02-01T09:47:12;100935.34;;;7.63;49.54
76460;BME280;65299;46.084;18.762;2023-02-01T09:50:20;100937.19;;;7.74;50.16
76460;BME280;65299;46.084;18.762;2023-02-01T09:53:29;100928.66;;;7.72;49.30
76460;BME280;65299;46.084;18.762;2023-02-01T09:56:40;100922.50;;;7.89;51.15
76460;BME280;65299;46.084;18.762;2023-02-01T09:59:44;100916.16;;;7.90;49.94
76460;BME280;65299;46.084;18.762;2023-02-01T10:02:46;100927.44;;;7.97;49.66
76460;BME280;65299;46.084;18.762;2023-02-01T10:06:14;100916.06;;;7.97;49.16
76460;BME280;65299;46.084;18.762;2023-02-01T10:13:09;100899.97;;;8.33;49.27
76460;BME280;65299;46.084;18.762;2023-02-01T10:16:39;100882.47;;;8.72;48.57
76460;BME280;65299;46.084;18.762;2023-02-01T10:26:24;100890.44;;;9.16;45.81
76460;BME280;65299;46.084;18.762;2023-02-01T10:29:30;100878.19;;;9.27;44.66
76460;BME280;65299;46.084;18.762;2023-02-01T10:32:34;100875.97;;;9.36;46.02
76460;BME280;65299;46.084;18.762;2023-02-01T10:35:36;100865.03;;;9.65;44.01
76460;BME280;65299;46.084;18.762;2023-02-01T10:38:36;100857.06;;;9.82;44.89
76460;BME280;65299;46.084;18.762;2023-02-01T10:41:39;100838.97;;;9.95;45.92
76460;BME280;65299;46.084;18.762;2023-02-01T10:44:43;100846.97;;;9.79;44.54
76460;BME280;65299;46.084;18.762;2023-02-01T10:47:47;100843.88;;;9.87;45.38
76460;BME280;65299;46.084;18.762;2023-02-01T10:50:58;100850.03;;;9.54;44.78
76460;BME280;65299;46.084;18.762;2023-02-01T10:54:03;100845.50;;;9.71;45.99
76460;BME280;65299;46.084;18.762;2023-02-01T10:57:26;100845.31;;;9.94;45.21
76460;BME280;65299;46.084;18.762;2023-02-01T11:00:37;100829.84;;;10.08;44.86
76460;BME280;65299;46.084;18.762;2023-02-01T11:04:01;100823.84;;;10.34;45.38
76460;BME280;65299;46.084;18.762;2023-02-01T11:10:39;100801.31;;;9.93;44.80
76460;BME280;65299;46.084;18.762;2023-02-01T11:13:40;100806.88;;;10.14;46.28
76460;BME280;65299;46.084;18.762;2023-02-01T11:16:47;100777.31;;;10.27;45.07
76460;BME280;65299;46.084;18.762;2023-02-01T11:19:57;100783.16;;;10.29;44.44
76460;BME280;65299;46.084;18.762;2023-02-01T11:22:58;100782.91;;;10.09;45.05
76460;BME280;65299;46.084;18.762;2023-02-01T11:26:01;100771.50;;;9.86;43.35
76460;BME280;65299;46.084;18.762;2023-02-01T11:29:05;100763.25;;;10.26;42.91
76460;BME280;65299;46.084;18.762;2023-02-01T11:32:12;100746.66;;;10.36;43.34
76460;BME280;65299;46.084;18.762;2023-02-01T11:35:17;100746.03;;;10.55;43.16
76460;BME280;65299;46.084;18.762;2023-02-01T11:38:29;100744.28;;;10.39;43.21
76460;BME280;65299;46.084;18.762;2023-02-01T11:41:30;100742.56;;;10.07;42.56
76460;BME280;65299;46.084;18.762;2023-02-01T11:44:40;100744.00;;;9.92;43.01
76460;BME280;65299;46.084;18.762;2023-02-01T11:47:41;100734.38;;;9.86;43.00
76460;BME280;65299;46.084;18.762;2023-02-01T12:08:04;100699.13;;;9.64;43.73
76460;BME280;65299;46.084;18.762;2023-02-01T12:14:24;100703.66;;;9.47;45.56
76460;BME280;65299;46.084;18.762;2023-02-01T12:21:06;100688.88;;;9.30;45.67
76460;BME280;65299;46.084;18.762;2023-02-01T12:37:29;100681.28;;;9.00;47.25
76460;BME280;65299;46.084;18.762;2023-02-01T12:41:00;100675.94;;;8.95;48.22
76460;BME280;65299;46.084;18.762;2023-02-01T12:47:31;100681.69;;;8.92;48.31
76460;BME280;65299;46.084;18.762;2023-02-01T12:50:44;100682.50;;;8.92;46.76
76460;BME280;65299;46.084;18.762;2023-02-01T12:56:54;100679.78;;;9.04;47.34
76460;BME280;65299;46.084;18.762;2023-02-01T13:06:34;100656.28;;;9.29;47.01
76460;BME280;65299;46.084;18.762;2023-02-01T13:09:44;100655.34;;;9.18;47.88
76460;BME280;65299;46.084;18.762;2023-02-01T13:12:57;100645.56;;;9.19;48.88
76460;BME280;65299;46.084;18.762;2023-02-01T13:16:17;100627.22;;;8.96;50.03
76460;BME280;65299;46.084;18.762;2023-02-01T13:22:54;100631.75;;;8.79;50.99
76460;BME280;65299;46.084;18.762;2023-02-01T13:25:58;100641.31;;;8.47;51.48
76460;BME280;65299;46.084;18.762;2023-02-01T13:29:04;100642.28;;;8.41;52.39
76460;BME280;65299;46.084;18.762;2023-02-01T13:32:19;100641.38;;;8.52;52.77
76460;BME280;65299;46.084;18.762;2023-02-01T13:42:01;100651.34;;;8.45;54.36
76460;BME280;65299;46.084;18.762;2023-02-01T13:45:05;100652.69;;;8.47;52.78
76460;BME280;65299;46.084;18.762;2023-02-01T13:48:24;100643.63;;;8.26;51.79
76460;BME280;65299;46.084;18.762;2023-02-01T13:54:36;100644.13;;;8.12;51.79
76460;BME280;65299;46.084;18.762;2023-02-01T13:57:39;100630.97;;;8.28;51.40
76460;BME280;65299;46.084;18.762;2023-02-01T14:00:42;100629.44;;;8.49;51.64
76460;BME280;65299;46.084;18.762;2023-02-01T14:03:54;100629.13;;;8.46;50.94
76460;BME280;65299;46.084;18.762;2023-02-01T14:06:55;100617.41;;;8.58;50.81
76460;BME280;65299;46.084;18.762;2023-02-01T14:09:56;100598.59;;;8.55;51.27
76460;BME280;65299;46.084;18.762;2023-02-01T14:13:31;100605.97;;;8.53;51.56
76460;BME280;65299;46.084;18.762;2023-02-01T14:16:38;100608.28;;;8.49;51.26
76460;BME280;65299;46.084;18.762;2023-02-01T14:19:38;100596.56;;;8.62;51.20
76460;BME280;65299;46.084;18.762;2023-02-01T14:22:38;100598.81;;;8.53;51.27
76460;BME280;65299;46.084;18.762;2023-02-01T14:25:39;100583.13;;;8.47;51.75
76460;BME280;65299;46.084;18.762;2023-02-01T14:28:44;100583.53;;;8.39;52.07
76460;BME280;65299;46.084;18.762;2023-02-01T14:35:00;100576.88;;;8.36;51.88
76460;BME280;65299;46.084;18.762;2023-02-01T14:38:02;100563.31;;;8.16;51.68
76460;BME280;65299;46.084;18.762;2023-02-01T14:44:29;100568.03;;;8.47;50.89
76460;BME280;65299;46.084;18.762;2023-02-01T14:47:31;100568.03;;;8.47;50.93
76460;BME280;65299;46.084;18.762;2023-02-01T14:53:34;100635.31;;;8.34;51.26
76460;BME280;65299;46.084;18.762;2023-02-01T14:56:35;100697.50;;;7.97;53.74
76460;BME280;65299;46.084;18.762;2023-02-01T14:59:36;100769.97;;;7.27;55.54
76460;BME280;65299;46.084;18.762;2023-02-01T15:02:38;100760.66;;;7.36;53.85
76460;BME280;65299;46.084;18.762;2023-02-01T15:05:46;100803.38;;;7.33;52.46
76460;BME280;65299;46.084;18.762;2023-02-01T15:12:26;100806.25;;;7.66;50.28
76460;BME280;65299;46.084;18.762;2023-02-01T15:15:30;100806.94;;;7.50;51.76
76460;BME280;65299;46.084;18.762;2023-02-01T15:18:36;100792.78;;;7.10;53.89
76460;BME280;65299;46.084;18.762;2023-02-01T15:21:48;100807.63;;;7.34;54.58
76460;BME280;65299;46.084;18.762;2023-02-01T15:24:53;100807.47;;;7.06;56.42
76460;BME280;65299;46.084;18.762;2023-02-01T15:27:55;100809.63;;;6.97;57.03
76460;BME280;65299;46.084;18.762;2023-02-01T15:30:59;100821.38;;;6.72;58.45
76460;BME280;65299;46.084;18.762;2023-02-01T15:33:59;100835.34;;;7.02;58.23
76460;BME280;65299;46.084;18.762;2023-02-01T15:37:04;100841.22;;;6.74;59.86
76460;BME280;65299;46.084;18.762;2023-02-01T15:43:12;100844.66;;;6.75;61.12
76460;BME280;65299;46.084;18.762;2023-02-01T15:46:22;100852.03;;;6.54;61.82
76460;BME280;65299;46.084;18.762;2023-02-01T15:52:37;100862.13;;;6.87;61.70
76460;BME280;65299;46.084;18.762;2023-02-01T15:55:40;100868.31;;;6.81;62.29
76460;BME280;65299;46.084;18.762;2023-02-01T15:58:53;100874.63;;;6.62;62.83
76460;BME280;65299;46.084;18.762;2023-02-01T16:01:54;100870.22;;;6.74;63.25
76460;BME280;65299;46.084;18.762;2023-02-01T16:04:54;100872.50;;;6.41;64.71
76460;BME280;65299;46.084;18.762;2023-02-01T16:08:04;100842.59;;;6.47;64.55
76460;BME280;65299;46.084;18.762;2023-02-01T16:14:08;100838.03;;;6.54;64.17
76460;BME280;65299;46.084;18.762;2023-02-01T16:17:08;100833.56;;;6.54;64.68
76460;BME280;65299;46.084;18.762;2023-02-01T16:20:10;100837.59;;;6.57;64.52
76460;BME280;65299;46.084;18.762;2023-02-01T16:23:11;100838.81;;;6.72;64.60
76460;BME280;65299;46.084;18.762;2023-02-01T16:26:11;100844.34;;;6.83;63.72
76460;BME280;65299;46.084;18.762;2023-02-01T16:29:11;100846.75;;;6.84;63.86
76460;BME280;65299;46.084;18.762;2023-02-01T16:32:20;100841.06;;;6.99;63.80
76460;BME280;65299;46.084;18.762;2023-02-01T16:38:23;100811.13;;;7.05;64.35
76460;BME280;65299;46.084;18.762;2023-02-01T16:41:24;100800.72;;;7.10;64.67
76460;BME280;65299;46.084;18.762;2023-02-01T16:44:25;100800.81;;;7.15;64.90
76460;BME280;65299;46.084;18.762;2023-02-01T16:47:25;100811.59;;;7.02;64.56
76460;BME280;65299;46.084;18.762;2023-02-01T16:50:26;100809.94;;;6.78;65.07
76460;BME280;65299;46.084;18.762;2023-02-01T16:53:28;100799.81;;;6.75;65.05
76460;BME280;65299;46.084;18.762;2023-02-01T16:56:32;100802.38;;;6.81;64.80
76460;BME280;65299;46.084;18.762;2023-02-01T16:59:33;100794.88;;;6.78;64.86
76460;BME280;65299;46.084;18.762;2023-02-01T17:02:33;100805.09;;;6.75;65.13
76460;BME280;65299;46.084;18.762;2023-02-01T17:05:34;100807.03;;;6.67;65.47
76460;BME280;65299;46.084;18.762;2023-02-01T17:08:37;100803.97;;;6.52;65.54
76460;BME280;65299;46.084;18.762;2023-02-01T17:11:39;100822.59;;;6.57;65.42
76460;BME280;65299;46.084;18.762;2023-02-01T17:14:39;100837.63;;;6.39;65.83
76460;BME280;65299;46.084;18.762;2023-02-01T17:17:40;100835.94;;;6.44;65.92
76460;BME280;65299;46.084;18.762;2023-02-01T17:20:42;100833.00;;;6.52;65.39
76460;BME280;65299;46.084;18.762;2023-02-01T17:23:43;100827.72;;;6.52;65.20
76460;BME280;65299;46.084;18.762;2023-02-01T17:26:45;100830.44;;;6.46;65.35
76460;BME280;65299;46.084;18.762;2023-02-01T17:29:45;100834.16;;;6.56;65.29
76460;BME280;65299;46.084;18.762;2023-02-01T17:32:47;100829.69;;;6.57;64.98
76460;BME280;65299;46.084;18.762;2023-02-01T17:35:48;100830.03;;;6.60;64.57
76460;BME280;65299;46.084;18.762;2023-02-01T17:38:48;100839.84;;;6.72;64.19
76460;BME280;65299;46.084;18.762;2023-02-01T17:41:49;100839.69;;;6.66;64.63
76460;BME280;65299;46.084;18.762;2023-02-01T17:44:51;100833.56;;;6.84;64.11
76460;BME280;65299;46.084;18.762;2023-02-01T17:47:54;100837.47;;;6.82;64.35
76460;BME280;65299;46.084;18.762;2023-02-01T17:50:55;100830.31;;;6.70;65.20
76460;BME280;65299;46.084;18.762;2023-02-01T17:53:57;100822.28;;;6.65;63.95
76460;BME280;65299;46.084;18.762;2023-02-01T17:56:59;100802.91;;;6.42;64.19
76460;BME280;65299;46.084;18.762;2023-02-01T18:00:03;100792.75;;;6.27;64.64
76460;BME280;65299;46.084;18.762;2023-02-01T18:03:03;100798.63;;;6.11;65.74
76460;BME280;65299;46.084;18.762;2023-02-01T18:06:05;100799.22;;;5.95;65.83
76460;BME280;65299;46.084;18.762;2023-02-01T18:09:09;100799.44;;;5.94;65.66
76460;BME280;65299;46.084;18.762;2023-02-01T18:12:19;100789.00;;;5.80;66.00
76460;BME280;65299;46.084;18.762;2023-02-01T18:15:21;100794.22;;;5.69;66.25